Latest Weather Observations for Hindmarsh Island

IDS60901

Issued at 11:01 am CDT Friday 19 December 2014 (issued every 10 minutes, with the page automatically refreshed every 10 minutes)

About weather observations | Map of Adelaide area stations | Latest observations for Adelaide area | Other Formats
Station Details ID: 023894 Name: HINDMARSH ISLAND AWS Lat: -35.52 Lon: 138.82 Height: 11.0 m
Data from the previous 72 hours. | See also: Recent months at Hindmarsh Island
Date/Time
CDT
Tmp

°C
App
Tmp
°C
Dew
Point
°C
Rel
Hum
%
Delta-T

°C
Wind Press
QNH
hPa
Press
MSL
hPa
Rain
since
9 am
mm
Dir
 
Spd
km/h
Gust
km/h
Spd
kts
Gust
kts
19/11:00am 19.7 15.4 7.8 46 6.1 SSW 20 28 11 15 1020.8 - 0.0
19/10:30am 19.3 15.7 8.3 49 5.7 S 17 24 9 13 1020.7 - 0.0
19/10:00am 18.7 15.0 7.8 49 5.6 S 17 24 9 13 1020.7 - 0.0
19/09:30am 19.0 15.3 7.8 48 5.7 S 17 24 9 13 1020.4 - 0.0
19/09:00am 17.7 13.6 7.7 52 5.0 S 19 24 10 13 1020.1 1020.0 0.0
19/08:30am 17.9 13.5 7.6 51 5.2 S 20 28 11 15 1019.7 - 0.0
19/08:00am 17.7 13.7 8.3 54 4.8 S 19 24 10 13 1019.3 - 0.0
19/07:30am 17.0 13.4 8.2 56 4.5 S 17 24 9 13 1018.9 - 0.0
19/07:00am 16.6 13.1 8.6 59 4.1 S 17 22 9 12 1018.5 - 0.0
19/06:30am 16.3 12.4 8.5 60 4.0 S 19 24 10 13 1018.1 - 0.0
19/06:00am 15.9 11.7 8.2 60 3.9 S 20 26 11 14 1017.9 1017.8 0.0
19/05:30am 15.8 11.9 8.5 62 3.7 SSW 19 24 10 13 1017.8 - 0.0
19/05:00am 15.4 11.4 8.4 63 3.5 SSW 19 24 10 13 1017.6 - 0.0
19/04:30am 15.4 11.1 7.7 60 3.8 SSW 20 28 11 15 1017.4 - 0.0
19/04:00am 15.5 11.2 8.0 61 3.8 SSW 20 26 11 14 1017.3 - 0.0
19/03:30am 15.6 11.0 8.1 61 3.8 SSW 22 28 12 15 1017.2 - 0.0
19/03:00am 15.7 10.7 8.2 61 3.8 SSW 24 28 13 15 1017.4 1017.3 0.0
19/02:30am 15.8 10.0 7.8 59 4.0 SSW 28 33 15 18 1017.3 - 0.0
19/02:00am 16.2 11.2 7.9 58 4.2 S 24 28 13 15 1017.4 - 0.0
19/01:30am 15.9 11.2 7.7 58 4.1 SSW 22 28 12 15 1017.4 - 0.0
19/01:00am 16.0 10.5 7.5 57 4.2 SSW 26 32 14 17 1017.4 - 0.0
19/12:30am 15.9 11.2 7.9 59 4.0 SSW 22 26 12 14 1017.3 - 0.0
19/12:00am 16.0 10.0 7.2 56 4.4 SW 28 33 15 18 1017.4 1017.3 0.0
 
Date/Time
CDT
Tmp

°C
App
Tmp
°C
Dew
Point
°C
Rel
Hum
%
Delta-T

°C
Wind Press
QNH
hPa
Press
MSL
hPa
Rain
since
9 am
mm
Dir
 
Spd
km/h
Gust
km/h
Spd
kts
Gust
kts
18/11:30pm 16.3 10.2 8.3 59 4.1 SSW 30 37 16 20 1017.1 - 0.0
18/11:00pm 16.2 9.9 7.4 56 4.4 SSW 30 35 16 19 1017.1 - 0.0
18/10:30pm 16.6 10.5 8.3 58 4.2 SSW 30 39 16 21 1016.9 - 0.0
18/10:00pm 16.4 10.8 8.9 61 3.9 SSW 28 33 15 18 1016.7 - 0.0
18/09:30pm 16.5 11.0 9.0 61 3.9 SSW 28 33 15 18 1016.3 - 0.0
18/09:00pm 16.6 11.4 8.8 60 4.0 SW 26 30 14 16 1016.3 1016.1 0.0
18/08:30pm 16.5 9.8 8.2 58 4.2 SSW 33 43 18 23 1015.8 - 0.0
18/08:00pm 17.0 10.7 8.9 59 4.2 SSW 32 39 17 21 1015.8 - 0.0
18/07:30pm 17.6 10.8 7.9 53 4.9 SW 33 43 18 23 1015.2 - 0.0
18/07:00pm 18.1 11.2 8.7 54 4.9 SSW 35 46 19 25 1014.8 - 0.0
18/06:30pm 18.5 11.1 8.5 52 5.2 SW 37 52 20 28 1014.5 - 0.0
18/06:00pm 18.8 10.4 9.0 53 5.1 SSW 43 50 23 27 1014.0 1013.9 0.0
18/05:30pm 18.6 10.9 10.2 58 4.5 SSW 41 48 22 26 1013.7 - 0.0
18/05:00pm 19.4 12.3 10.9 58 4.6 SW 39 50 21 27 1013.3 - 0.0
18/04:30pm 19.4 11.7 10.1 55 5.0 SSW 41 50 22 27 1013.2 - 0.0
18/04:00pm 19.1 10.7 9.0 52 5.3 SSW 43 52 23 28 1012.9 - 0.0
18/03:30pm 20.7 13.4 11.6 56 5.0 SSW 41 54 22 29 1012.8 - 0.0
18/03:00pm 20.9 13.2 11.5 55 5.2 SSW 43 52 23 28 1012.3 1012.2 0.0
18/02:30pm 21.5 14.6 11.5 53 5.6 SSW 39 50 21 27 1012.0 - 0.0
18/02:00pm 20.7 13.6 10.8 53 5.4 SW 39 48 21 26 1012.0 - 0.0
18/01:30pm 19.4 12.4 11.4 60 4.4 SW 39 46 21 25 1012.0 - 0.0
18/01:00pm 19.3 12.9 12.1 63 4.0 SW 37 44 20 24 1011.8 - 0.0
18/12:30pm 19.0 11.8 12.0 64 3.9 SW 41 48 22 26 1011.7 - 0.0
18/12:01pm 16.5 10.6 12.3 76 2.3 WSW 35 54 19 29 1011.5 - 0.0
18/12:00pm 16.4 9.4 12.4 77 2.2 SW 41 54 22 29 1011.5 1011.5 0.0
18/11:52am 16.5 8.5 12.5 77 2.2 SW 46 65 25 35 1011.5 - 0.0
18/11:30am 17.9 7.6 11.7 67 3.4 SW 57 69 31 37 1010.6 - 0.0
18/11:28am 18.3 8.1 12.1 67 3.4 SW 57 69 31 37 1010.6 - 0.0
18/11:24am 20.4 14.3 11.6 57 4.9 SW 35 56 19 30 1010.6 - 0.0
18/11:00am 21.6 15.1 8.8 44 6.8 W 33 46 18 25 1010.6 - 0.0
18/10:30am 20.8 14.9 10.6 52 5.6 W 32 44 17 24 1010.6 - 0.0
18/10:00am 18.8 15.1 11.6 63 4.0 W 22 32 12 17 1010.5 - 0.0
18/09:30am 17.3 11.1 11.3 68 3.2 W 35 48 19 26 1010.5 - 0.0
18/09:00am 18.6 13.9 10.7 60 4.3 W 26 35 14 19 1009.9 1009.8 0.0
18/08:33am 18.8 13.6 10.1 57 4.6 W 28 46 15 25 1009.7 - 0.0
18/08:30am 19.5 15.4 11.3 59 4.5 W 24 37 13 20 1009.6 - 0.0
18/08:00am 17.9 14.4 10.8 63 3.8 WNW 20 26 11 14 1009.3 - 0.0
18/07:30am 16.9 13.3 10.5 66 3.4 WNW 20 26 11 14 1009.0 - 0.0
18/07:00am 15.1 11.2 9.5 69 2.9 NW 20 26 11 14 1008.7 - 0.0
18/06:30am 14.5 11.1 9.3 71 2.7 NW 17 20 9 11 1008.7 - 0.0
18/06:00am 13.8 10.3 8.8 72 2.5 NW 17 22 9 12 1008.5 1008.3 0.0
18/05:30am 12.5 10.4 8.4 76 2.0 NNW 9 13 5 7 1008.2 - 0.0
18/05:00am 12.4 9.9 8.1 75 2.1 NNW 11 15 6 8 1007.8 - 0.0
18/04:30am 12.4 9.5 8.3 76 2.0 N 13 13 7 7 1007.8 - 0.0
18/04:00am 12.4 9.8 7.9 74 2.2 NNW 11 13 6 7 1007.9 - 0.0
18/03:30am 13.0 10.6 8.5 74 2.2 NNW 11 13 6 7 1007.5 - 0.0
18/03:00am 12.8 10.8 8.5 75 2.1 NW 9 11 5 6 1007.7 1007.6 0.0
18/02:30am 13.3 10.9 8.6 73 2.4 NNW 11 13 6 7 1007.5 - 0.0
18/02:00am 13.6 11.5 8.4 71 2.6 NNW 9 11 5 6 1007.6 - 0.0
18/01:30am 14.3 12.2 8.3 67 3.0 NNW 9 11 5 6 1007.8 - 0.0
18/01:00am 15.1 13.2 9.2 68 3.0 WNW 9 11 5 6 1008.1 - 0.0
18/12:30am 14.7 12.8 9.1 69 2.9 WNW 9 11 5 6 1008.4 - 0.0
18/12:00am 14.9 12.9 8.8 67 3.1 NW 9 11 5 6 1008.7 1008.6 0.0
 
Date/Time
CDT
Tmp

°C
App
Tmp
°C
Dew
Point
°C
Rel
Hum
%
Delta-T

°C
Wind Press
QNH
hPa
Press
MSL
hPa
Rain
since
9 am
mm
Dir
 
Spd
km/h
Gust
km/h
Spd
kts
Gust
kts
17/11:30pm 15.7 13.5 8.0 60 3.9 SW 9 13 5 7 1008.7 - 0.0
17/11:00pm 15.7 12.3 7.7 59 4.0 SW 15 17 8 9 1008.8 - 0.0
17/10:30pm 15.9 12.8 8.9 63 3.6 SSW 15 19 8 10 1008.9 - 0.0
17/10:00pm 16.2 12.8 9.2 63 3.6 S 17 20 9 11 1008.9 - 0.0
17/09:30pm 16.5 12.7 9.7 64 3.6 SSW 20 26 11 14 1008.7 - 0.0
17/09:00pm 16.5 12.7 9.9 65 3.5 SSW 20 26 11 14 1008.5 1008.4 0.0
17/08:30pm 16.6 12.7 9.5 63 3.7 S 20 24 11 13 1008.2 - 0.0
17/08:00pm 17.3 13.1 9.7 61 4.0 S 22 28 12 15 1008.0 - 0.0
17/07:30pm 17.8 13.1 9.2 57 4.5 S 24 30 13 16 1007.8 - 0.0
17/07:00pm 18.8 13.8 9.6 55 4.9 SSW 26 32 14 17 1007.7 - 0.0
17/06:30pm 18.6 13.2 9.4 55 4.8 SSW 28 33 15 18 1007.7 - 0.0
17/06:00pm 20.0 15.3 9.3 50 5.7 SSW 24 30 13 16 1007.6 1007.5 0.0
17/05:30pm 20.0 15.1 9.9 52 5.4 S 26 32 14 17 1007.8 - 0.0
17/05:00pm 20.1 15.2 8.4 47 6.1 S 24 30 13 16 1007.9 - 0.0
17/04:30pm 20.3 15.7 8.3 46 6.2 S 22 28 12 15 1008.0 - 0.0
17/04:00pm 20.3 15.7 8.0 45 6.4 S 22 28 12 15 1008.2 - 0.0
17/03:30pm 20.5 15.4 7.5 43 6.7 S 24 32 13 17 1008.3 - 0.0
17/03:00pm 20.6 15.6 7.9 44 6.6 S 24 30 13 16 1008.7 1008.6 0.0
17/02:30pm 20.0 15.0 6.4 41 6.8 S 22 32 12 17 1009.0 - 0.0
17/02:00pm 20.3 15.1 7.3 43 6.6 SSW 24 32 13 17 1009.3 - 0.0
17/01:30pm 20.1 14.7 6.4 41 6.9 SSW 24 32 13 17 1009.4 - 0.0
17/01:00pm 20.5 15.4 7.5 43 6.7 SSW 24 30 13 16 1009.7 - 0.0
17/12:30pm 20.3 16.1 7.3 43 6.6 S 19 24 10 13 1009.9 - 0.0
17/12:00pm 19.9 16.0 7.0 43 6.5 S 17 24 9 13 1010.2 1010.2 0.0
17/11:30am 18.9 14.8 6.1 43 6.3 SSW 17 22 9 12 1010.7 - 0.0
17/11:00am 19.2 16.0 7.0 45 6.2 S 13 17 7 9 1010.7 - 0.0
17/10:30am 18.3 15.1 6.8 47 5.7 S 13 17 7 9 1010.8 - 0.0
17/10:00am 18.7 15.0 6.2 44 6.2 SSW 15 19 8 10 1010.9 - 0.0
17/09:30am 18.2 15.0 7.0 48 5.6 SW 13 19 7 10 1011.0 - 0.0
17/09:00am 17.3 13.6 6.2 48 5.4 WSW 15 20 8 11 1011.1 1011.0 0.0
17/08:30am 17.3 13.7 6.8 50 5.2 WSW 15 20 8 11 1011.2 - 0.0
17/08:00am 16.0 13.5 8.0 59 4.0 W 11 15 6 8 1011.1 - 0.0
17/07:30am 15.5 12.8 7.5 59 4.0 W 11 15 6 8 1010.9 - 0.0
17/07:00am 14.9 11.9 7.9 63 3.5 WNW 13 19 7 10 1010.8 - 0.0
17/06:30am 15.1 12.2 8.3 64 3.4 W 13 17 7 9 1010.4 - 0.0
17/06:00am 14.6 12.0 7.9 64 3.3 WNW 11 15 6 8 1009.8 1009.7 0.0
17/05:30am 14.0 11.3 7.5 65 3.2 WNW 11 13 6 7 1009.4 - 0.0
17/05:00am 14.2 11.2 7.7 65 3.2 WNW 13 17 7 9 1009.1 - 0.0
17/04:30am 14.3 12.0 7.6 64 3.3 W 9 15 5 8 1008.9 - 0.0
17/04:00am 15.5 11.6 7.0 57 4.2 S 17 22 9 12 1008.6 - 0.0
17/03:30am 15.3 10.8 6.3 55 4.4 SSW 19 22 10 12 1008.4 - 0.0
17/03:00am 15.2 11.3 7.0 58 4.0 SSW 17 20 9 11 1008.3 1008.3 0.0
17/02:30am 15.4 10.9 6.9 57 4.2 SSW 20 24 11 13 1008.3 - 0.0
17/02:00am 15.4 10.0 6.4 55 4.4 SSW 24 33 13 18 1008.5 - 0.0
17/01:30am 15.7 10.6 7.5 58 4.1 S 24 30 13 16 1008.6 - 0.0
17/01:00am 15.7 10.1 7.2 57 4.2 SSW 26 32 14 17 1009.0 - 0.0
17/12:30am 15.5 10.1 7.8 60 3.8 SSW 26 32 14 17 1009.2 - 0.0
17/12:00am 15.8 10.0 7.8 59 4.0 SW 28 37 15 20 1009.2 1009.1 0.0
 
Date/Time
CDT
Tmp

°C
App
Tmp
°C
Dew
Point
°C
Rel
Hum
%
Delta-T

°C
Wind Press
QNH
hPa
Press
MSL
hPa
Rain
since
9 am
mm
Dir
 
Spd
km/h
Gust
km/h
Spd
kts
Gust
kts
16/11:30pm 15.8 9.5 7.6 58 4.1 SW 30 37 16 20 1009.2 - 0.0
16/11:00pm 16.0 9.7 7.5 57 4.2 SW 30 39 16 21 1009.2 - 0.0
16/10:30pm 16.0 9.3 7.5 57 4.2 SW 32 43 17 23 1009.3 - 0.0
16/10:00pm 16.2 9.4 7.9 58 4.2 SSW 33 43 18 23 1009.1 - 0.0
16/09:30pm 16.3 9.8 8.3 59 4.1 SW 32 41 17 22 1009.0 - 0.0
16/09:00pm 16.4 9.8 7.6 56 4.4 SW 32 44 17 24 1008.6 1008.4 0.0
16/08:30pm 16.4 8.8 7.6 56 4.4 SW 37 46 20 25 1008.2 - 0.0
16/08:00pm 16.9 8.1 8.1 56 4.5 SW 44 52 24 28 1007.7 - 0.0
16/07:30pm 17.5 7.9 8.1 54 4.8 SW 48 57 26 31 1007.1 - 0.0
16/07:00pm 18.0 9.1 7.7 51 5.2 SW 44 57 24 31 1006.7 - 0.0
16/06:30pm 18.6 10.1 9.1 54 5.0 SW 44 57 24 31 1006.4 - 0.0
16/06:00pm 18.8 8.9 8.2 50 5.5 SW 50 63 27 34 1005.5 1005.4 0.0
16/05:30pm 19.4 9.3 9.0 51 5.5 SW 52 61 28 33 1005.4 - 0.0
16/05:00pm 19.4 9.3 9.0 51 5.5 SW 52 63 28 34 1005.0 - 0.0
16/04:30pm 18.2 8.9 9.3 56 4.7 SW 48 63 26 34 1005.1 - 0.0
16/04:00pm 19.5 9.8 10.5 56 4.9 SW 52 67 28 36 1004.6 - 0.0
16/03:30pm 19.1 10.0 9.9 55 4.9 SW 48 59 26 32 1004.5 - 0.0
16/03:00pm 19.1 8.6 8.7 51 5.4 SW 54 67 29 36 1004.0 1003.8 0.0
16/02:30pm 19.3 9.9 10.0 55 5.0 SW 50 63 27 34 1003.5 - 0.0
16/02:00pm 20.5 11.6 10.6 53 5.4 SW 48 63 26 34 1003.1 - 0.0
16/01:30pm 22.4 14.3 12.1 52 5.8 SW 46 57 25 31 1002.7 - 0.0
16/01:27pm 23.3 16.0 11.7 48 6.5 SW 41 57 22 31 1002.8 - 0.0
16/01:18pm 23.3 16.2 9.7 42 7.4 W 37 52 20 28 1002.4 - 0.0
16/01:00pm 21.6 15.9 11.9 54 5.4 SW 33 41 18 22 1002.3 - 0.0
16/12:30pm 19.4 14.3 13.6 69 3.3 W 33 48 18 26 1002.2 - 0.0
16/12:09pm 20.7 13.9 12.1 58 4.8 WNW 39 57 21 31 1001.8 - 0.0
16/12:00pm 21.2 13.6 12.3 57 5.0 W 44 59 24 32 1001.7 1001.5 0.0
16/11:30am 21.1 14.1 11.4 54 5.4 W 39 54 21 29 1001.6 - 0.0
16/11:13am 21.4 14.3 10.9 51 5.8 W 39 63 21 34 1001.4 - 0.0

Latest Capital City Observations: Canberra | Sydney | Melbourne | Brisbane | Adelaide | Perth | Hobart | Darwin

Other Formats:

Comma delimited format used in spreadsheet applications
http://www.bom.gov.au/fwo/IDS60901/IDS60901.94677.axf

JavaScript Object Notation format (JSON) in row-major order
http://www.bom.gov.au/fwo/IDS60901/IDS60901.94677.json